createdAt,value
2023-01-12T00:00:14.947Z,85.47
2023-01-12T00:01:14.888Z,85.47
2023-01-12T00:02:15.060Z,85.66
2023-01-12T00:03:14.917Z,85.37
2023-01-12T00:04:15.236Z,86.04
2023-01-12T00:05:14.956Z,85.85
2023-01-12T00:06:14.958Z,85.94
2023-01-12T00:07:15.003Z,86.04
2023-01-12T00:08:14.992Z,85.37
2023-01-12T00:09:15.015Z,85.18
2023-01-12T00:10:15.021Z,85.47
2023-01-12T00:11:15.067Z,85.56
2023-01-12T00:12:14.867Z,85.56
2023-01-12T00:13:15.085Z,85.85
2023-01-12T00:14:15.107Z,85.28
2023-01-12T00:15:15.112Z,85.94
2023-01-12T00:16:15.231Z,85.94
2023-01-12T00:17:15.141Z,85.28
2023-01-12T00:18:15.351Z,85.56
2023-01-12T00:19:15.456Z,85.56
2023-01-12T00:20:14.917Z,85.28
2023-01-12T00:21:15.413Z,85.18
2023-01-12T00:22:15.312Z,85.37
2023-01-12T00:23:15.111Z,85.37
2023-01-12T00:24:15.413Z,85.37
2023-01-12T00:25:15.416Z,85.28
2023-01-12T00:26:15.275Z,85.28
2023-01-12T00:27:15.409Z,85.14
2023-01-12T00:28:15.425Z,85.85
2023-01-12T00:29:15.411Z,85.28
2023-01-12T00:30:15.127Z,85.85
2023-01-12T00:31:15.391Z,85.37
2023-01-12T00:32:15.103Z,85.85
2023-01-12T00:33:15.367Z,85.18
2023-01-12T00:34:15.403Z,85.94
2023-01-12T00:35:15.149Z,85.28
2023-01-12T00:36:15.413Z,85.85
2023-01-12T00:37:15.443Z,85.28
2023-01-12T00:38:15.464Z,85.28
2023-01-12T00:39:15.486Z,85.85
2023-01-12T00:40:15.478Z,85.28
2023-01-12T00:41:15.498Z,85.28
2023-01-12T00:42:15.254Z,85.18
2023-01-12T00:43:15.570Z,85.85
2023-01-12T00:44:15.601Z,84.89
2023-01-12T00:45:15.557Z,85.08
2023-01-12T00:46:15.476Z,84.99
2023-01-12T00:47:15.595Z,85.85
2023-01-12T00:48:15.613Z,85.47
2023-01-12T00:49:15.620Z,85.66
2023-01-12T00:50:17.379Z,84.85
2023-01-12T00:51:15.384Z,85.75
2023-01-12T00:52:30.235Z,84.99
2023-01-12T00:53:15.676Z,85.18
2023-01-12T00:54:15.685Z,85.08
2023-01-12T00:55:15.723Z,85.66
2023-01-12T00:56:15.727Z,85.85
2023-01-12T00:57:15.741Z,85.56
2023-01-12T00:58:15.751Z,85.18
2023-01-12T00:59:15.787Z,85.56
2023-01-12T01:00:15.826Z,85.08
2023-01-12T01:01:16.073Z,85.18
2023-01-12T01:02:16.143Z,85.66
2023-01-12T01:03:15.573Z,85.08
2023-01-12T01:04:16.312Z,85.08
2023-01-12T01:05:15.871Z,85.18
2023-01-12T01:06:15.915Z,85.08
2023-01-12T01:07:15.889Z,85.08
2023-01-12T01:08:15.900Z,85.18
2023-01-12T01:09:15.930Z,85.18
2023-01-12T01:10:15.941Z,84.99
2023-01-12T01:11:15.957Z,85.18
2023-01-12T01:12:15.982Z,85.18
2023-01-12T01:13:15.729Z,85.47
2023-01-12T01:14:15.736Z,85.75
2023-01-12T01:15:16.055Z,84.85
2023-01-12T01:16:15.850Z,85.18
2023-01-12T01:17:16.095Z,85.75
2023-01-12T01:18:16.061Z,85.28
2023-01-12T01:19:16.073Z,85.08
2023-01-12T01:20:16.076Z,85.18
2023-01-12T01:21:16.112Z,84.89
2023-01-12T01:22:16.120Z,85.08
2023-01-12T01:23:16.146Z,85.08
2023-01-12T01:24:16.159Z,84.99
2023-01-12T01:25:16.167Z,84.99
2023-01-12T01:26:16.191Z,84.99
2023-01-12T01:27:16.220Z,85.61
2023-01-12T01:28:15.954Z,85.08
2023-01-12T01:29:16.236Z,85.08
2023-01-12T01:30:16.242Z,84.99
2023-01-12T01:31:16.400Z,85.08
2023-01-12T01:32:16.321Z,84.89
2023-01-12T01:33:16.033Z,84.89
2023-01-12T01:34:16.315Z,85.56
2023-01-12T01:35:16.328Z,84.89
2023-01-12T01:36:16.341Z,84.99
2023-01-12T01:37:16.094Z,85.08
2023-01-12T01:38:16.107Z,85.08
2023-01-12T01:39:16.385Z,85.18
2023-01-12T01:40:16.145Z,84.89
2023-01-12T01:41:16.415Z,85.08
2023-01-12T01:42:16.172Z,84.99
2023-01-12T01:43:16.454Z,85.18
2023-01-12T01:44:16.469Z,84.99
2023-01-12T01:45:16.485Z,85.08
2023-01-12T01:46:16.686Z,85.18
2023-01-12T01:47:16.543Z,84.89
2023-01-12T01:48:16.554Z,85.18
2023-01-12T01:49:16.536Z,84.99
2023-01-12T01:50:16.321Z,85.08
2023-01-12T01:51:16.571Z,85.08
2023-01-12T01:52:16.331Z,85.08
2023-01-12T01:53:16.611Z,84.99
2023-01-12T01:54:16.611Z,84.99
2023-01-12T01:55:16.407Z,84.89
2023-01-12T01:56:16.650Z,84.99
2023-01-12T01:57:16.676Z,84.8
2023-01-12T01:58:16.691Z,84.99
2023-01-12T01:59:16.701Z,84.99
2023-01-12T02:00:16.704Z,84.8
2023-01-12T02:01:16.937Z,85.37
2023-01-12T02:02:16.818Z,84.89
2023-01-12T02:03:16.782Z,85.14
2023-01-12T02:04:16.995Z,85.37
2023-01-12T02:05:16.797Z,85.37
2023-01-12T02:06:16.802Z,85.47
2023-01-12T02:07:16.814Z,85.47
2023-01-12T02:08:16.585Z,84.89
2023-01-12T02:09:16.859Z,84.89
2023-01-12T02:10:16.868Z,86.04
2023-01-12T02:11:16.622Z,85.08
2023-01-12T02:12:16.634Z,85.47
2023-01-12T02:13:16.910Z,85.08
2023-01-12T02:14:16.954Z,84.89
2023-01-12T02:15:16.989Z,84.8
2023-01-12T02:16:16.897Z,85.08
2023-01-12T02:17:16.737Z,84.8
2023-01-12T02:18:16.987Z,84.89
2023-01-12T02:19:17.040Z,85.75
2023-01-12T02:20:17.048Z,85.47
2023-01-12T02:21:17.038Z,84.8
2023-01-12T02:22:17.068Z,85.37
2023-01-12T02:23:17.059Z,85.18
2023-01-12T02:24:17.082Z,85.18
2023-01-12T02:25:16.860Z,85.47
2023-01-12T02:26:17.109Z,85.37
2023-01-12T02:27:17.123Z,85.37
2023-01-12T02:28:16.893Z,84.99
2023-01-12T02:29:17.162Z,85.66
2023-01-12T02:30:17.181Z,84.99
2023-01-12T02:31:17.335Z,85.47
2023-01-12T02:32:17.205Z,85.47
2023-01-12T02:33:16.963Z,85.47
2023-01-12T02:34:17.237Z,85.18
2023-01-12T02:35:17.281Z,85.47
2023-01-12T02:36:17.299Z,85.66
2023-01-12T02:37:17.024Z,85.28
2023-01-12T02:38:17.304Z,85.85
2023-01-12T02:39:17.320Z,85.75
2023-01-12T02:40:17.331Z,85.85
2023-01-12T02:41:17.327Z,85.85
2023-01-12T02:42:17.371Z,85.85
2023-01-12T02:43:17.423Z,85.75
2023-01-12T02:44:17.131Z,85.75
2023-01-12T02:45:17.404Z,85.85
2023-01-12T02:46:17.504Z,85.56
2023-01-12T02:47:17.431Z,85.75
2023-01-12T02:48:17.443Z,85.75
2023-01-12T02:49:17.478Z,85.66
2023-01-12T02:50:17.238Z,85.56
2023-01-12T02:51:17.570Z,85.85
2023-01-12T02:52:17.567Z,85.56
2023-01-12T02:53:17.614Z,85.47
2023-01-12T02:54:17.536Z,85.85
2023-01-12T02:55:17.556Z,85.56
2023-01-12T02:56:17.593Z,85.85
2023-01-12T02:57:17.621Z,85.56
2023-01-12T02:58:17.613Z,85.56
2023-01-12T02:59:17.615Z,85.66
2023-01-12T03:00:17.633Z,85.75
2023-01-12T03:01:18.067Z,85.75
2023-01-12T03:02:17.658Z,85.56
2023-01-12T03:03:17.745Z,85.66
2023-01-12T03:04:18.030Z,85.56
2023-01-12T03:05:17.727Z,85.56
2023-01-12T03:06:17.724Z,85.56
2023-01-12T03:07:17.760Z,85.75
2023-01-12T03:08:17.614Z,85.47
2023-01-12T03:09:17.795Z,85.66
2023-01-12T03:10:17.787Z,85.47
2023-01-12T03:11:17.805Z,85.56
2023-01-12T03:12:17.850Z,85.47
2023-01-12T03:13:17.838Z,85.75
2023-01-12T03:14:17.843Z,85.47
2023-01-12T03:15:17.868Z,85.47
2023-01-12T03:16:18.038Z,85.56
2023-01-12T03:17:17.904Z,85.47
2023-01-12T03:18:17.655Z,85.56
2023-01-12T03:19:17.929Z,85.56
2023-01-12T03:20:17.706Z,85.47
2023-01-12T03:21:17.963Z,85.56
2023-01-12T03:22:17.968Z,85.08
2023-01-12T03:23:18.008Z,85.47
2023-01-12T03:24:18.039Z,85.37
2023-01-12T03:25:18.026Z,85.47
2023-01-12T03:26:18.038Z,85.47
2023-01-12T03:27:18.068Z,85.08
2023-01-12T03:28:18.060Z,85.47
2023-01-12T03:29:18.078Z,85.47
2023-01-12T03:30:18.115Z,85.47
2023-01-12T03:31:18.217Z,85.08
2023-01-12T03:32:18.138Z,85.75
2023-01-12T03:33:18.141Z,85.66
2023-01-12T03:34:17.890Z,85.66
2023-01-12T03:35:18.189Z,85.37
2023-01-12T03:36:17.922Z,85.75
2023-01-12T03:37:18.203Z,85.75
2023-01-12T03:38:18.217Z,85.94
2023-01-12T03:39:18.269Z,85.75
2023-01-12T03:40:18.307Z,85.85
2023-01-12T03:41:18.264Z,85.75
2023-01-12T03:42:18.034Z,85.85
2023-01-12T03:43:18.342Z,85.66
2023-01-12T03:44:18.315Z,85.85
2023-01-12T03:45:18.353Z,86.13
2023-01-12T03:46:18.341Z,85.61
2023-01-12T03:47:18.359Z,85.66
2023-01-12T03:48:18.367Z,85.66
2023-01-12T03:49:18.390Z,85.75
2023-01-12T03:50:18.401Z,85.75
2023-01-12T03:51:18.412Z,85.75
2023-01-12T03:52:18.431Z,85.94
2023-01-12T03:53:18.445Z,85.66
2023-01-12T03:54:18.505Z,85.56
2023-01-12T03:55:18.505Z,85.66
2023-01-12T03:56:18.521Z,85.94
2023-01-12T03:57:18.512Z,85.94
2023-01-12T03:58:18.521Z,85.75
2023-01-12T03:59:18.540Z,85.56
2023-01-12T04:00:18.579Z,85.75
2023-01-12T04:01:18.482Z,85.56
2023-01-12T04:02:18.351Z,85.85
2023-01-12T04:03:18.751Z,85.66
2023-01-12T04:04:18.670Z,85.66
2023-01-12T04:05:18.632Z,85.56
2023-01-12T04:06:18.399Z,85.56
2023-01-12T04:07:18.643Z,85.94
2023-01-12T04:08:18.431Z,85.9
2023-01-12T04:09:18.695Z,85.66
2023-01-12T04:10:18.722Z,86.04
2023-01-12T04:11:18.753Z,85.94
2023-01-12T04:12:18.505Z,86.04
2023-01-12T04:13:18.753Z,85.94
2023-01-12T04:14:18.771Z,85.66
2023-01-12T04:15:18.802Z,86.13
2023-01-12T04:16:18.911Z,86.13
2023-01-12T04:17:18.835Z,86.04
2023-01-12T04:18:18.829Z,85.94
2023-01-12T04:19:18.589Z,86.13
2023-01-12T04:20:19.409Z,86.13
2023-01-12T04:21:18.626Z,86.04
2023-01-12T04:22:19.190Z,86.13
2023-01-12T04:23:18.907Z,86.13
2023-01-12T04:24:18.948Z,86.04
2023-01-12T04:25:18.682Z,86.32
2023-01-12T04:26:18.974Z,86.32
2023-01-12T04:27:19.002Z,86.04
2023-01-12T04:28:19.035Z,86.51
2023-01-12T04:29:18.742Z,86.42
2023-01-12T04:30:19.022Z,86.42
2023-01-12T04:31:19.172Z,86.51
2023-01-12T04:32:19.072Z,86.22
2023-01-12T04:33:19.072Z,86.51
2023-01-12T04:34:19.083Z,86.51
2023-01-12T04:35:19.704Z,86.22
2023-01-12T04:36:19.094Z,86.51
2023-01-12T04:37:19.140Z,86.22
2023-01-12T04:38:19.152Z,85.85
2023-01-12T04:39:19.168Z,86.22
2023-01-12T04:40:19.191Z,86.22
2023-01-12T04:41:19.209Z,86.22
2023-01-12T04:42:19.200Z,86.32
2023-01-12T04:43:19.249Z,86.22
2023-01-12T04:44:19.316Z,86.32
2023-01-12T04:45:19.250Z,86.22
2023-01-12T04:46:19.088Z,86.04
2023-01-12T04:47:19.269Z,86.22
2023-01-12T04:48:19.293Z,86.22
2023-01-12T04:49:19.341Z,86.22
2023-01-12T04:50:19.333Z,86.04
2023-01-12T04:51:19.340Z,86.22
2023-01-12T04:52:19.381Z,86.22
2023-01-12T04:53:19.457Z,86.22
2023-01-12T04:54:19.376Z,86.22
2023-01-12T04:55:19.404Z,86.22
2023-01-12T04:56:19.156Z,86.04
2023-01-12T04:57:19.485Z,86.13
2023-01-12T04:58:19.440Z,86.22
2023-01-12T04:59:19.511Z,86.22
2023-01-12T05:00:19.522Z,86.04
2023-01-12T05:01:19.823Z,86.22
2023-01-12T05:02:19.504Z,86.04
2023-01-12T05:03:19.536Z,86.13
2023-01-12T05:04:19.479Z,86.13
2023-01-12T05:05:19.567Z,86.51
2023-01-12T05:06:19.567Z,86.22
2023-01-12T05:07:19.593Z,86.22
2023-01-12T05:08:19.595Z,86.32
2023-01-12T05:09:22.328Z,86.32
2023-01-12T05:10:19.395Z,86.04
2023-01-12T05:11:19.661Z,85.94
2023-01-12T05:12:19.661Z,86.22
2023-01-12T05:13:19.668Z,86.04
2023-01-12T05:14:19.686Z,86.32
2023-01-12T05:15:19.744Z,86.32
2023-01-12T05:16:20.031Z,86.22
2023-01-12T05:17:19.739Z,86.04
2023-01-12T05:18:19.504Z,85.94
2023-01-12T05:19:19.803Z,86.13
2023-01-12T05:20:19.779Z,86.13
2023-01-12T05:21:19.799Z,86.22
2023-01-12T05:22:19.836Z,86.32
2023-01-12T05:23:19.833Z,86.32
2023-01-12T05:24:19.591Z,86.22
2023-01-12T05:25:19.861Z,86.32
2023-01-12T05:26:19.884Z,86.22
2023-01-12T05:27:19.632Z,86.32
2023-01-12T05:28:19.919Z,86.51
2023-01-12T05:29:19.920Z,86.22
2023-01-12T05:30:19.945Z,86.51
2023-01-12T05:31:20.114Z,86.22
2023-01-12T05:32:19.741Z,86.22
2023-01-12T05:33:19.990Z,86.04
2023-01-12T05:34:20.019Z,86.18
2023-01-12T05:35:20.023Z,86.22
2023-01-12T05:36:20.030Z,85.94
2023-01-12T05:37:20.062Z,86.22
2023-01-12T05:38:20.062Z,86.04
2023-01-12T05:39:20.080Z,86.38
2023-01-12T05:40:20.095Z,86.22
2023-01-12T05:41:20.108Z,86.32
2023-01-12T05:42:20.143Z,86.18
2023-01-12T05:43:20.167Z,86.22
2023-01-12T05:44:20.159Z,86.22
2023-01-12T05:45:20.167Z,86.22
2023-01-12T05:46:20.299Z,86.22
2023-01-12T05:47:20.215Z,86.18
2023-01-12T05:48:19.981Z,86.22
2023-01-12T05:49:20.267Z,85.94
2023-01-12T05:50:20.244Z,86.32
2023-01-12T05:51:20.284Z,85.94
2023-01-12T05:52:20.296Z,86.42
2023-01-12T05:53:20.277Z,85.94
2023-01-12T05:54:20.305Z,86.51
2023-01-12T05:55:20.314Z,86.22
2023-01-12T05:56:20.345Z,86.22
2023-01-12T05:57:20.353Z,85.94
2023-01-12T05:58:20.109Z,85.94
2023-01-12T05:59:20.388Z,86.22
2023-01-12T06:00:20.383Z,86.22
2023-01-12T06:01:20.612Z,86.22
2023-01-12T06:02:20.412Z,85.94
2023-01-12T06:03:20.452Z,86.22
2023-01-12T06:04:21.017Z,86.04
2023-01-12T06:05:20.214Z,86.13
2023-01-12T06:06:20.482Z,86.22
2023-01-12T06:07:20.548Z,86.13
2023-01-12T06:08:20.518Z,86.22
2023-01-12T06:09:20.538Z,86.13
2023-01-12T06:10:20.564Z,86.04
2023-01-12T06:11:20.565Z,86.04
2023-01-12T06:12:20.325Z,85.99
2023-01-12T06:13:20.602Z,86.04
2023-01-12T06:14:20.610Z,86.13
2023-01-12T06:15:20.635Z,86.22
2023-01-12T06:16:20.808Z,86.51
2023-01-12T06:17:20.658Z,86.13
2023-01-12T06:18:20.665Z,86.13
2023-01-12T06:19:20.714Z,86.13
2023-01-12T06:20:20.728Z,86.61
2023-01-12T06:21:20.718Z,86.22
2023-01-12T06:22:20.728Z,86.42
2023-01-12T06:23:20.757Z,86.32
2023-01-12T06:24:20.772Z,86.61
2023-01-12T06:25:20.780Z,86.42
2023-01-12T06:26:20.819Z,86.04
2023-01-12T06:27:20.814Z,86.7
2023-01-12T06:28:20.585Z,86.32
2023-01-12T06:29:20.840Z,86.8
2023-01-12T06:30:20.868Z,86.7
2023-01-12T06:31:20.780Z,86.9
2023-01-12T06:32:20.889Z,86.8
2023-01-12T06:33:20.914Z,86.8
2023-01-12T06:34:20.943Z,86.9
2023-01-12T06:35:22.349Z,86.8
2023-01-12T06:36:20.733Z,86.8
2023-01-12T06:37:20.972Z,86.22
2023-01-12T06:38:21.580Z,86.8
2023-01-12T06:39:20.757Z,86.61
2023-01-12T06:40:20.742Z,86.8
2023-01-12T06:41:20.769Z,86.8
2023-01-12T06:42:21.039Z,86.9
2023-01-12T06:43:21.058Z,86.9
2023-01-12T06:44:21.088Z,86.9
2023-01-12T06:45:21.086Z,86.76
2023-01-12T06:46:21.211Z,86.8
2023-01-12T06:47:21.114Z,86.8
2023-01-12T06:48:21.138Z,86.8
2023-01-12T06:49:21.156Z,86.8
2023-01-12T06:50:20.919Z,86.8
2023-01-12T06:51:21.209Z,86.8
2023-01-12T06:52:21.218Z,86.8
2023-01-12T06:53:21.213Z,86.9
2023-01-12T06:54:21.535Z,86.8
2023-01-12T06:55:21.238Z,86.8
2023-01-12T06:56:21.269Z,86.9
2023-01-12T06:57:21.011Z,86.9
2023-01-12T06:58:21.290Z,86.61
2023-01-12T06:59:21.329Z,86.8
2023-01-12T07:00:21.338Z,86.61
2023-01-12T07:01:21.624Z,86.42
2023-01-12T07:02:21.392Z,86.51
2023-01-12T07:03:21.376Z,86.61
2023-01-12T07:04:21.718Z,86.61
2023-01-12T07:05:21.399Z,86.61
2023-01-12T07:06:21.413Z,86.51
2023-01-12T07:07:21.446Z,86.42
2023-01-12T07:08:21.334Z,86.8
2023-01-12T07:09:21.451Z,86.51
2023-01-12T07:10:21.473Z,86.61
2023-01-12T07:11:21.486Z,86.61
2023-01-12T07:12:21.510Z,86.61
2023-01-12T07:13:21.514Z,86.61
2023-01-12T07:14:21.545Z,86.61
2023-01-12T07:15:21.567Z,86.61
2023-01-12T07:16:21.835Z,86.61
2023-01-12T07:17:21.573Z,86.61
2023-01-12T07:18:21.586Z,86.7
2023-01-12T07:19:21.627Z,86.61
2023-01-12T07:20:21.618Z,86.42
2023-01-12T07:21:21.376Z,86.61
2023-01-12T07:22:21.651Z,86.22
2023-01-12T07:23:21.700Z,86.61
2023-01-12T07:24:21.461Z,86.7
2023-01-12T07:25:21.739Z,86.18
2023-01-12T07:26:21.710Z,86.7
2023-01-12T07:27:21.721Z,86.42
2023-01-12T07:28:21.496Z,86.28
2023-01-12T07:29:21.769Z,86.32
2023-01-12T07:30:21.771Z,86.42
2023-01-12T07:31:22.076Z,86.32
2023-01-12T07:32:21.807Z,86.42
2023-01-12T07:33:21.818Z,86.51
2023-01-12T07:34:21.852Z,86.51
2023-01-12T07:35:21.607Z,86.51
2023-01-12T07:36:21.870Z,86.51
2023-01-12T07:37:21.873Z,86.32
2023-01-12T07:38:21.889Z,86.42
2023-01-12T07:39:21.937Z,86.42
2023-01-12T07:40:21.956Z,86.32
2023-01-12T07:41:21.937Z,86.38
2023-01-12T07:42:21.958Z,86.51
2023-01-12T07:43:21.720Z,86.42
2023-01-12T07:44:21.998Z,86.42
2023-01-12T07:45:21.997Z,86.42
2023-01-12T07:46:22.122Z,86.51
2023-01-12T07:47:22.036Z,86.32
2023-01-12T07:48:22.052Z,86.51
2023-01-12T07:49:22.059Z,86.32
2023-01-12T07:50:22.078Z,86.61
2023-01-12T07:51:22.094Z,86.13
2023-01-12T07:52:21.848Z,86.13
2023-01-12T07:53:22.169Z,86.32
2023-01-12T07:54:21.871Z,86.32
2023-01-12T07:55:22.166Z,86.32
2023-01-12T07:56:22.222Z,86.42
2023-01-12T07:57:21.955Z,86.42
2023-01-12T07:58:22.201Z,86.13
2023-01-12T07:59:22.217Z,86.61
2023-01-12T08:00:22.228Z,86.61
2023-01-12T08:01:22.367Z,86.13
2023-01-12T08:02:22.404Z,86.13
2023-01-12T08:03:22.285Z,86.42
2023-01-12T08:04:22.690Z,86.51
2023-01-12T08:05:22.404Z,86.51
2023-01-12T08:06:22.314Z,86.13
2023-01-12T08:07:22.346Z,86.51
2023-01-12T08:08:22.093Z,86.42
2023-01-12T08:09:22.368Z,86.51
2023-01-12T08:10:22.379Z,86.32
2023-01-12T08:11:22.435Z,86.13
2023-01-12T08:12:22.460Z,86.42
2023-01-12T08:13:22.429Z,86.42
2023-01-12T08:14:22.456Z,86.51
2023-01-12T08:15:22.467Z,86.51
2023-01-12T08:16:22.597Z,86.42
2023-01-12T08:17:22.539Z,86.42
2023-01-12T08:18:22.507Z,86.42
2023-01-12T08:19:22.255Z,86.42
2023-01-12T08:20:22.546Z,86.22
2023-01-12T08:21:22.563Z,86.13
2023-01-12T08:22:22.567Z,86.42
2023-01-12T08:23:22.590Z,86.32
2023-01-12T08:24:22.593Z,86.51
2023-01-12T08:25:22.634Z,86.51
2023-01-12T08:26:22.628Z,86.22
2023-01-12T08:27:22.701Z,86.22
2023-01-12T08:28:22.703Z,86.51
2023-01-12T08:29:22.671Z,86.61
2023-01-12T08:30:22.690Z,86.61
2023-01-12T08:31:22.851Z,86.42
2023-01-12T08:32:22.730Z,86.57
2023-01-12T08:33:22.749Z,86.38
2023-01-12T08:34:22.746Z,86.61
2023-01-12T08:35:22.767Z,86.42
2023-01-12T08:36:22.787Z,86.42
2023-01-12T08:37:23.143Z,86.47
2023-01-12T08:38:22.805Z,86.42
2023-01-12T08:39:22.829Z,86.51
2023-01-12T08:40:22.836Z,86.51
2023-01-12T08:41:22.857Z,86.51
2023-01-12T08:42:22.876Z,86.51
2023-01-12T08:43:22.922Z,86.42
2023-01-12T08:44:22.928Z,86.51
2023-01-12T08:45:22.931Z,86.42
2023-01-12T08:46:22.891Z,86.32
2023-01-12T08:47:22.940Z,86.42
2023-01-12T08:48:22.959Z,86.51
2023-01-12T08:49:24.511Z,86.42
2023-01-12T08:50:22.996Z,86.42
2023-01-12T08:51:23.002Z,86.42
2023-01-12T08:52:23.024Z,86.51
2023-01-12T08:53:23.069Z,86.51
2023-01-12T08:54:23.066Z,86.42
2023-01-12T08:55:23.067Z,86.61
2023-01-12T08:56:23.088Z,86.61
2023-01-12T08:57:23.130Z,86.61
2023-01-12T08:58:23.120Z,86.61
2023-01-12T08:59:23.196Z,86.51
2023-01-12T09:00:23.193Z,86.42
2023-01-12T09:01:23.431Z,86.42
2023-01-12T09:02:23.354Z,86.42
2023-01-12T09:03:22.935Z,86.51
2023-01-12T09:04:23.404Z,86.51
2023-01-12T09:05:23.226Z,86.51
2023-01-12T09:06:23.250Z,87.08
2023-01-12T09:07:23.285Z,87.08
2023-01-12T09:08:23.283Z,86.42
2023-01-12T09:09:23.291Z,86.42
2023-01-12T09:10:23.436Z,86.42
2023-01-12T09:11:23.324Z,86.7
2023-01-12T09:12:25.392Z,86.42
2023-01-12T09:13:23.359Z,86.61
2023-01-12T09:14:23.377Z,86.42
2023-01-12T09:15:23.415Z,86.61
2023-01-12T09:16:23.513Z,86.42
2023-01-12T09:17:23.417Z,87.18
2023-01-12T09:18:23.443Z,87.18
2023-01-12T09:19:23.463Z,86.61
2023-01-12T09:20:23.509Z,86.61
2023-01-12T09:21:23.464Z,86.32
2023-01-12T09:22:23.238Z,86.32
2023-01-12T09:23:23.551Z,87.08
2023-01-12T09:24:23.527Z,86.9
2023-01-12T09:25:23.527Z,86.9
2023-01-12T09:26:23.550Z,86.8
2023-01-12T09:27:23.567Z,86.7
2023-01-12T09:28:23.586Z,86.7
2023-01-12T09:29:23.322Z,86.8
2023-01-12T09:30:23.660Z,86.99
2023-01-12T09:31:23.830Z,86.9
2023-01-12T09:32:36.062Z,86.9
2023-01-12T09:33:26.380Z,86.9
2023-01-12T09:34:23.679Z,86.9
2023-01-12T09:35:23.437Z,86.8
2023-01-12T09:36:23.716Z,86.7
2023-01-12T09:37:23.716Z,86.9
2023-01-12T09:38:23.755Z,86.9
2023-01-12T09:39:31.317Z,86.8
2023-01-12T09:40:23.835Z,86.99
2023-01-12T09:41:23.544Z,86.99
2023-01-12T09:42:23.539Z,87.08
2023-01-12T09:43:23.802Z,86.9
2023-01-12T09:44:23.823Z,86.8
2023-01-12T09:45:23.857Z,86.8
2023-01-12T09:46:23.606Z,87.08
2023-01-12T09:47:23.916Z,86.8
2023-01-12T09:48:24.444Z,86.9
2023-01-12T09:49:23.903Z,86.9
2023-01-12T09:50:24.051Z,86.99
2023-01-12T09:51:23.941Z,86.99
2023-01-12T09:52:23.955Z,86.99
2023-01-12T09:53:23.974Z,86.99
2023-01-12T09:54:23.718Z,86.8
2023-01-12T09:55:23.734Z,86.61
2023-01-12T09:56:23.758Z,86.99
2023-01-12T09:57:31.444Z,87.37
2023-01-12T09:58:24.058Z,87.46
2023-01-12T09:59:24.094Z,87.18
2023-01-12T10:00:23.834Z,87.27
2023-01-12T10:01:32.052Z,87.56
2023-01-12T10:02:24.213Z,86.9
2023-01-12T10:03:24.374Z,87.37
2023-01-12T10:04:24.372Z,87.18
2023-01-12T10:05:35.099Z,87.18
2023-01-12T10:06:24.182Z,87.18
2023-01-12T10:07:24.189Z,87.08
2023-01-12T10:08:24.206Z,87.37
2023-01-12T10:09:24.233Z,87.56
2023-01-12T10:10:24.296Z,86.9
2023-01-12T10:11:24.246Z,87.37
2023-01-12T10:12:24.260Z,87.37
2023-01-12T10:13:24.278Z,87.56
2023-01-12T10:14:24.036Z,87.56
2023-01-12T10:15:24.038Z,87.08
2023-01-12T10:16:24.459Z,87.27
2023-01-12T10:17:24.343Z,87.56
2023-01-12T10:18:24.107Z,87.18
2023-01-12T10:19:24.748Z,87.08
2023-01-12T10:20:24.488Z,87.56
2023-01-12T10:21:24.398Z,87.27
2023-01-12T10:22:24.492Z,87.18
2023-01-12T10:23:24.502Z,87.27
2023-01-12T10:24:24.487Z,87.37
2023-01-12T10:25:24.453Z,87.37
2023-01-12T10:26:24.475Z,87.18
2023-01-12T10:27:24.495Z,86.7
2023-01-12T10:28:24.524Z,87.27
2023-01-12T10:29:24.696Z,87.08
2023-01-12T10:30:24.766Z,86.8
2023-01-12T10:31:24.839Z,86.99
2023-01-12T10:32:26.559Z,87.56
2023-01-12T10:33:24.797Z,87.27
2023-01-12T10:34:24.758Z,87.37
2023-01-12T10:35:24.787Z,87.37
2023-01-12T10:36:24.810Z,87.46
2023-01-12T10:37:24.798Z,87.37
2023-01-12T10:38:24.718Z,87.56
2023-01-12T10:39:24.438Z,87.46
2023-01-12T10:40:24.796Z,87.46
2023-01-12T10:41:24.452Z,87.46
2023-01-12T10:42:24.778Z,87.56
2023-01-12T10:43:24.759Z,87.18
2023-01-12T10:44:24.755Z,87.37
2023-01-12T10:45:24.787Z,87.18
2023-01-12T10:46:24.796Z,87.56
2023-01-12T10:47:24.550Z,87.18
2023-01-12T10:48:24.836Z,87.56
2023-01-12T10:49:24.830Z,87.75
2023-01-12T10:50:24.843Z,87.37
2023-01-12T10:51:24.882Z,87.37
2023-01-12T10:52:24.905Z,87.37
2023-01-12T10:53:24.887Z,87.37
2023-01-12T10:54:24.931Z,87.46
2023-01-12T10:55:24.921Z,87.56
2023-01-12T10:56:24.954Z,87.56
2023-01-12T10:57:24.991Z,87.46
2023-01-12T10:58:24.971Z,88.13
2023-01-12T10:59:24.969Z,88.04
2023-01-12T11:00:27.766Z,88.13
2023-01-12T11:01:25.269Z,88.13
2023-01-12T11:02:25.356Z,88.04
2023-01-12T11:03:25.037Z,87.85
2023-01-12T11:04:25.237Z,88.04
2023-01-12T11:05:25.069Z,88.04
2023-01-12T11:06:25.103Z,87.85
2023-01-12T11:07:25.163Z,88.04
2023-01-12T11:08:25.145Z,87.94
2023-01-12T11:09:25.154Z,87.94
2023-01-12T11:10:25.152Z,87.94
2023-01-12T11:11:25.166Z,88.13
2023-01-12T11:12:25.176Z,87.65
2023-01-12T11:13:25.193Z,87.85
2023-01-12T11:14:26.862Z,87.85
2023-01-12T11:15:25.230Z,87.75
2023-01-12T11:16:25.143Z,87.85
2023-01-12T11:17:25.252Z,88.13
2023-01-12T11:18:25.268Z,87.85
2023-01-12T11:19:25.291Z,88.04
2023-01-12T11:20:25.294Z,88.04
2023-01-12T11:21:25.372Z,87.94
2023-01-12T11:22:25.346Z,87.75
2023-01-12T11:23:25.375Z,87.94
2023-01-12T11:24:25.401Z,87.75
2023-01-12T11:25:25.394Z,87.94
2023-01-12T11:26:25.401Z,87.94
2023-01-12T11:27:25.143Z,87.75
2023-01-12T11:28:25.431Z,87.56
2023-01-12T11:29:25.444Z,87.94
2023-01-12T11:30:25.266Z,87.75
2023-01-12T11:31:25.485Z,88.23
2023-01-12T11:32:25.494Z,88.13
2023-01-12T11:33:25.504Z,88.23
2023-01-12T11:34:25.565Z,88.23
2023-01-12T11:35:25.537Z,87.94
2023-01-12T11:36:25.587Z,87.94
2023-01-12T11:37:25.591Z,88.23
2023-01-12T11:38:25.585Z,87.94
2023-01-12T11:39:25.628Z,88.04
2023-01-12T11:40:25.679Z,88.23
2023-01-12T11:41:25.714Z,88.23
2023-01-12T11:42:25.667Z,88.23
2023-01-12T11:43:25.666Z,88.04
2023-01-12T11:44:25.719Z,88.23
2023-01-12T11:45:25.691Z,88.23
2023-01-12T11:46:25.584Z,88.23
2023-01-12T11:47:25.724Z,88.23
2023-01-12T11:48:25.743Z,88.04
2023-01-12T11:49:25.747Z,87.85
2023-01-12T11:50:25.793Z,88.7
2023-01-12T11:51:25.794Z,88.51
2023-01-12T11:52:25.794Z,87.94
2023-01-12T11:53:25.839Z,88.6
2023-01-12T11:54:25.573Z,87.85
2023-01-12T11:55:25.877Z,88.32
2023-01-12T11:56:25.889Z,87.94
2023-01-12T11:57:25.894Z,88.04
2023-01-12T11:58:25.891Z,87.85
2023-01-12T11:59:25.923Z,87.85
2023-01-12T12:00:25.925Z,88.04
2023-01-12T12:01:26.009Z,88.51
2023-01-12T12:02:26.093Z,88.79
2023-01-12T12:03:26.124Z,88.6
2023-01-12T12:04:26.329Z,88.79
2023-01-12T12:05:26.008Z,88.79
2023-01-12T12:06:26.015Z,88.7
2023-01-12T12:07:25.771Z,88.79
2023-01-12T12:08:26.042Z,88.6
2023-01-12T12:09:26.062Z,88.79
2023-01-12T12:10:26.285Z,88.6
2023-01-12T12:11:26.146Z,88.79
2023-01-12T12:12:26.143Z,88.42
2023-01-12T12:13:26.132Z,88.32
2023-01-12T12:14:26.150Z,88.23
2023-01-12T12:15:26.184Z,88.23
2023-01-12T12:16:26.191Z,88.6
2023-01-12T12:17:26.188Z,88.42
2023-01-12T12:18:25.955Z,88.6
2023-01-12T12:19:26.227Z,88.6
2023-01-12T12:20:26.235Z,88.32
2023-01-12T12:21:25.983Z,88.79
2023-01-12T12:22:26.267Z,88.99
2023-01-12T12:23:26.275Z,88.99
2023-01-12T12:24:26.284Z,88.7
2023-01-12T12:25:26.043Z,88.6
2023-01-12T12:26:26.336Z,88.79
2023-01-12T12:27:26.356Z,88.79
2023-01-12T12:28:26.120Z,88.6
2023-01-12T12:29:26.381Z,88.7
2023-01-12T12:30:26.390Z,88.99
2023-01-12T12:31:26.542Z,89.08
2023-01-12T12:32:26.413Z,89.08
2023-01-12T12:33:26.184Z,89.37
2023-01-12T12:34:26.183Z,89.18
2023-01-12T12:35:26.458Z,89.37
2023-01-12T12:36:26.480Z,89.27
2023-01-12T12:37:26.506Z,89.37
2023-01-12T12:38:26.512Z,89.37
2023-01-12T12:39:26.262Z,88.89
2023-01-12T12:40:26.544Z,89.37
2023-01-12T12:41:26.636Z,89.18
2023-01-12T12:42:26.590Z,89.27
2023-01-12T12:43:26.600Z,89.37
2023-01-12T12:44:26.638Z,89.27
2023-01-12T12:45:26.644Z,89.37
2023-01-12T12:46:26.778Z,89.37
2023-01-12T12:47:26.640Z,89.18
2023-01-12T12:48:26.658Z,89.18
2023-01-12T12:49:26.436Z,89.08
2023-01-12T12:50:26.702Z,89.08
2023-01-12T12:51:26.705Z,89.08
2023-01-12T12:52:26.457Z,88.99
2023-01-12T12:53:26.466Z,89.08
2023-01-12T12:54:26.746Z,89.47
2023-01-12T12:55:26.777Z,89.08